createdAt,value
2023-05-10T00:03:56.649Z,98738.56
2023-05-10T00:08:48.303Z,98740.63
2023-05-10T00:13:39.893Z,98738.66
2023-05-10T00:18:31.463Z,98739.84
2023-05-10T00:23:23.096Z,98742.97
2023-05-10T00:28:14.709Z,98741.44
2023-05-10T00:33:06.355Z,98740.97
2023-05-10T00:37:57.878Z,98737.78
2023-05-10T00:42:49.472Z,98738.75
2023-05-10T00:47:41.607Z,98739.72
2023-05-10T00:52:33.385Z,98739.94
2023-05-10T00:57:25.651Z,98736.09
2023-05-10T01:02:17.246Z,98729.50
2023-05-10T01:07:08.850Z,98724.78
2023-05-10T01:12:02.591Z,98722.78
2023-05-10T01:16:55.017Z,98726.78
2023-05-10T01:21:52.165Z,98716.66
2023-05-10T01:26:56.099Z,98722.22
2023-05-10T01:32:02.370Z,98719.66
2023-05-10T01:37:07.128Z,98722.44
2023-05-10T01:42:09.801Z,98726.09
2023-05-10T01:47:41.011Z,98724.09
2023-05-10T01:52:41.974Z,98717.75
2023-05-10T01:57:40.625Z,98730.34
2023-05-10T02:02:44.404Z,98719.25
2023-05-10T02:07:39.267Z,98730.81
2023-05-10T02:12:33.268Z,98737.50
2023-05-10T02:17:26.026Z,98728.00
2023-05-10T02:22:19.064Z,98729.03
2023-05-10T02:27:12.538Z,98728.94
2023-05-10T02:32:05.493Z,98733.63
2023-05-10T02:36:57.964Z,98728.31
2023-05-10T02:41:51.315Z,98735.81
2023-05-10T02:46:43.026Z,98748.31
2023-05-10T02:51:38.422Z,98740.19
2023-05-10T02:56:34.268Z,98738.28
2023-05-10T03:01:25.993Z,98743.25
2023-05-10T03:06:17.676Z,98746.56
2023-05-10T03:11:09.210Z,98749.38
2023-05-10T03:16:08.924Z,98746.22
2023-05-10T03:21:06.230Z,98746.78
2023-05-10T03:25:58.964Z,98742.00
2023-05-10T03:30:50.907Z,98742.56
2023-05-10T03:35:42.569Z,98741.88
2023-05-10T03:40:34.261Z,98745.53
2023-05-10T03:45:26.136Z,98746.47
2023-05-10T03:50:17.917Z,98735.53
2023-05-10T03:55:10.026Z,98752.69
2023-05-10T04:00:01.804Z,98752.22
2023-05-10T04:04:53.489Z,98747.66
2023-05-10T04:09:45.164Z,98746.94
2023-05-10T04:14:36.715Z,98748.00
2023-05-10T04:19:31.651Z,98745.06
2023-05-10T04:24:23.232Z,98738.34
2023-05-10T04:29:14.768Z,98738.34
2023-05-10T04:34:06.358Z,98741.06
2023-05-10T04:38:57.904Z,98746.00
2023-05-10T04:43:50.521Z,98753.66
2023-05-10T04:48:42.103Z,98742.25
2023-05-10T04:53:33.927Z,98743.28
2023-05-10T04:58:25.985Z,98744.56
2023-05-10T05:03:17.683Z,98748.59
2023-05-10T05:08:09.329Z,98742.72
2023-05-10T05:13:01.008Z,98744.69
2023-05-10T05:17:52.917Z,98741.34
2023-05-10T05:22:44.537Z,98747.31
2023-05-10T05:27:36.112Z,98761.44
2023-05-10T05:32:27.776Z,98769.16
2023-05-10T05:37:20.985Z,98771.75
2023-05-10T05:42:14.299Z,98765.00
2023-05-10T05:47:06.675Z,98767.84
2023-05-10T05:52:03.289Z,98764.69
2023-05-10T05:56:56.487Z,98774.22
2023-05-10T06:01:48.114Z,98780.97
2023-05-10T06:06:39.738Z,98775.41
2023-05-10T06:11:33.181Z,98786.38
2023-05-10T06:16:24.849Z,98790.16
2023-05-10T06:21:17.221Z,98793.56
2023-05-10T06:26:08.900Z,98804.59
2023-05-10T06:31:01.096Z,98797.38
2023-05-10T06:35:53.057Z,98800.75
2023-05-10T06:40:45.021Z,98807.16
2023-05-10T06:45:36.633Z,98811.94
2023-05-10T06:50:28.288Z,98812.03
2023-05-10T06:55:20.038Z,98813.47
2023-05-10T07:00:12.106Z,98809.31
2023-05-10T07:05:03.868Z,98806.84
2023-05-10T07:09:55.689Z,98812.25
2023-05-10T07:14:47.756Z,98815.47
2023-05-10T07:19:39.362Z,98817.06
2023-05-10T07:24:32.333Z,98806.59
2023-05-10T07:29:24.069Z,98807.97
2023-05-10T07:34:16.050Z,98812.38
2023-05-10T07:39:07.986Z,98815.72
2023-05-10T07:43:59.615Z,98815.53
2023-05-10T07:48:51.249Z,98816.38
2023-05-10T07:53:42.924Z,98814.47
2023-05-10T07:58:34.510Z,98814.47
2023-05-10T08:03:26.195Z,98812.56
2023-05-10T08:08:18.530Z,98814.22
2023-05-10T08:13:10.155Z,98816.41
2023-05-10T08:18:01.803Z,98816.94
2023-05-10T08:22:53.542Z,98823.81
2023-05-10T08:27:45.098Z,98818.38
2023-05-10T08:32:36.706Z,98821.09
2023-05-10T08:37:31.150Z,98825.47
2023-05-10T08:42:26.510Z,98831.22
2023-05-10T08:47:19.254Z,98833.38
2023-05-10T08:52:14.114Z,98832.56
2023-05-10T08:57:06.081Z,98827.13
2023-05-10T09:01:59.910Z,98829.28
2023-05-10T09:06:51.774Z,98822.50
2023-05-10T09:11:43.571Z,98823.78
2023-05-10T09:16:35.362Z,98818.41
2023-05-10T09:21:27.326Z,98816.94
2023-05-10T09:26:23.792Z,98818.97
2023-05-10T09:31:15.362Z,98824.16
2023-05-10T09:36:10.436Z,98813.06
2023-05-10T09:41:03.662Z,98810.22
2023-05-10T09:45:55.324Z,98805.63
2023-05-10T09:50:57.192Z,98817.06
2023-05-10T09:55:50.285Z,98809.69
2023-05-10T10:00:43.436Z,98829.41
2023-05-10T10:05:36.360Z,98831.75
2023-05-10T10:10:29.607Z,98833.69
2023-05-10T10:15:24.711Z,98830.81
2023-05-10T10:20:17.202Z,98819.97
2023-05-10T10:25:09.621Z,98810.03
2023-05-10T10:30:28.619Z,98817.22
2023-05-10T10:35:20.499Z,98815.97
2023-05-10T10:40:24.045Z,98807.94
2023-05-10T10:45:15.814Z,98803.97
2023-05-10T10:50:09.259Z,98800.34
2023-05-10T10:55:23.474Z,98792.25
2023-05-10T11:00:28.911Z,98808.88
2023-05-10T11:05:42.790Z,98803.88
2023-05-10T11:10:34.486Z,98795.22
2023-05-10T11:15:31.143Z,98792.91
2023-05-10T11:20:25.811Z,98798.75
2023-05-10T11:25:17.337Z,98796.69
2023-05-10T11:30:11.720Z,98782.91
2023-05-10T11:35:11.423Z,98782.22
2023-05-10T11:40:03.991Z,98784.59
2023-05-10T11:44:55.842Z,98774.25
2023-05-10T11:49:49.016Z,98771.75
2023-05-10T11:54:52.595Z,98772.88
2023-05-10T11:59:44.274Z,98774.19
2023-05-10T12:04:36.066Z,98783.50
2023-05-10T12:09:42.710Z,98779.84
2023-05-10T12:14:36.734Z,98786.38
2023-05-10T12:19:28.401Z,98780.63
2023-05-10T12:24:20.306Z,98771.56
2023-05-10T12:29:15.909Z,98780.56
2023-05-10T12:34:09.065Z,98773.75
2023-05-10T12:39:04.311Z,98772.44
2023-05-10T12:43:56.098Z,98769.66
2023-05-10T12:48:55.204Z,98770.47
2023-05-10T12:53:51.824Z,98766.81
2023-05-10T12:58:48.900Z,98775.47
2023-05-10T13:03:40.840Z,98788.44
2023-05-10T13:08:34.671Z,98779.03
2023-05-10T13:13:26.450Z,98776.97
2023-05-10T13:18:18.240Z,98780.75
2023-05-10T13:23:10.681Z,98780.38
2023-05-10T13:28:03.090Z,98789.75
2023-05-10T13:32:54.669Z,98783.69
2023-05-10T13:37:46.354Z,98793.94
2023-05-10T13:42:38.527Z,98782.69
2023-05-10T13:47:30.224Z,98793.69
2023-05-10T13:52:22.183Z,98798.56
2023-05-10T13:57:14.957Z,98791.69
2023-05-10T14:02:07.422Z,98809.00
2023-05-10T14:06:59.033Z,98797.91
2023-05-10T14:11:50.675Z,98802.38
2023-05-10T14:16:45.766Z,98827.78
2023-05-10T14:21:37.501Z,98838.97
2023-05-10T14:26:29.105Z,98850.38
2023-05-10T14:31:21.564Z,98842.81
2023-05-10T14:36:14.120Z,98833.88
2023-05-10T14:41:05.817Z,98835.31
2023-05-10T14:45:57.407Z,98832.06
2023-05-10T14:50:50.663Z,98835.63
2023-05-10T14:55:42.376Z,98824.63
2023-05-10T15:00:34.117Z,98830.09
2023-05-10T15:05:26.129Z,98824.34
2023-05-10T15:10:19.109Z,98828.72
2023-05-10T15:15:10.830Z,98829.00
2023-05-10T15:20:04.416Z,98837.47
2023-05-10T15:24:56.384Z,98840.81
2023-05-10T15:29:47.948Z,98837.25
2023-05-10T15:34:40.698Z,98827.66
2023-05-10T15:39:32.262Z,98827.66
2023-05-10T15:44:24.133Z,98826.53
2023-05-10T15:49:15.809Z,98826.28
2023-05-10T15:54:09.871Z,98828.72
2023-05-10T15:59:01.535Z,98844.59
2023-05-10T16:03:53.108Z,98836.09
2023-05-10T16:08:44.635Z,98845.69
2023-05-10T16:13:36.298Z,98847.88
2023-05-10T16:18:27.875Z,98838.31
2023-05-10T16:23:19.775Z,98845.16
2023-05-10T16:28:11.428Z,98844.06
2023-05-10T16:33:03.658Z,98848.72
2023-05-10T16:37:55.422Z,98861.31
2023-05-10T16:42:47.036Z,98859.66
2023-05-10T16:47:40.270Z,98855.56
2023-05-10T16:52:32.653Z,98867.06
2023-05-10T16:57:24.365Z,98867.63
2023-05-10T17:02:16.060Z,98873.59
2023-05-10T17:07:08.706Z,98870.31
2023-05-10T17:12:00.753Z,98872.50
2023-05-10T17:16:53.200Z,98864.84
2023-05-10T17:21:44.914Z,98867.31
2023-05-10T17:26:37.302Z,98877.97
2023-05-10T17:31:29.889Z,98879.03
2023-05-10T17:36:21.903Z,98872.50
2023-05-10T17:41:14.900Z,98880.16
2023-05-10T17:46:06.491Z,98875.78
2023-05-10T17:50:58.200Z,98875.78
2023-05-10T17:55:52.092Z,98874.66
2023-05-10T18:00:43.739Z,98873.00
2023-05-10T18:05:37.267Z,98869.69
2023-05-10T18:10:29.449Z,98875.16
2023-05-10T18:15:21.321Z,98874.84
2023-05-10T18:20:13.310Z,98880.31
2023-05-10T18:25:05.444Z,98890.38
2023-05-10T18:29:57.286Z,98895.84
2023-05-10T18:34:48.966Z,98893.91
2023-05-10T18:39:40.956Z,98902.31
2023-05-10T18:44:32.480Z,98907.75
2023-05-10T18:49:24.435Z,98907.16
2023-05-10T18:54:16.165Z,98910.03
2023-05-10T18:59:07.719Z,98914.34
2023-05-10T19:03:59.505Z,98916.72
2023-05-10T19:08:51.134Z,98918.28
2023-05-10T19:13:42.891Z,98923.41
2023-05-10T19:18:34.851Z,98920.94
2023-05-10T19:23:26.999Z,98929.28
2023-05-10T19:28:19.038Z,98925.41
2023-05-10T19:33:12.738Z,98937.59
2023-05-10T19:38:04.978Z,98945.66
2023-05-10T19:42:57.177Z,98945.63
2023-05-10T19:47:48.759Z,98950.44
2023-05-10T19:52:40.356Z,98952.25
2023-05-10T19:57:31.914Z,98962.28
2023-05-10T20:02:23.636Z,98972.28
2023-05-10T20:07:15.362Z,98963.13
2023-05-10T20:12:06.866Z,98962.75
2023-05-10T20:16:58.565Z,98968.69
2023-05-10T20:21:50.371Z,98971.88
2023-05-10T20:26:41.920Z,98968.75
2023-05-10T20:31:33.865Z,98971.94
2023-05-10T20:36:26.676Z,98970.16
2023-05-10T20:41:18.301Z,98972.72
2023-05-10T20:46:10.201Z,98973.72
2023-05-10T20:51:02.532Z,98972.91
2023-05-10T20:55:54.140Z,98980.47
2023-05-10T21:00:45.858Z,98978.00
2023-05-10T21:05:37.401Z,98976.63
2023-05-10T21:10:28.983Z,98981.16
2023-05-10T21:15:22.606Z,98985.44
2023-05-10T21:20:14.440Z,98978.25
2023-05-10T21:25:06.397Z,98984.19
2023-05-10T21:29:57.995Z,98983.63
2023-05-10T21:34:49.520Z,98978.94
2023-05-10T21:39:41.119Z,98984.38
2023-05-10T21:44:32.696Z,98979.34
2023-05-10T21:49:24.334Z,98982.69
2023-05-10T21:54:15.888Z,98975.53
2023-05-10T21:59:07.529Z,98970.03
2023-05-10T22:03:59.081Z,98978.09
2023-05-10T22:08:51.219Z,98976.69
2023-05-10T22:13:42.786Z,98967.72
2023-05-10T22:18:34.540Z,98977.38
2023-05-10T22:23:26.238Z,98973.59
2023-05-10T22:28:17.786Z,98972.75
2023-05-10T22:33:09.379Z,98975.03
2023-05-10T22:38:01.135Z,98968.16
2023-05-10T22:42:52.665Z,98965.09
2023-05-10T22:47:44.287Z,98965.25
2023-05-10T22:52:38.810Z,98961.63
2023-05-10T22:57:31.081Z,98965.78
2023-05-10T23:02:22.705Z,98974.00
2023-05-10T23:07:14.385Z,98971.78
2023-05-10T23:12:05.980Z,98967.56
2023-05-10T23:16:57.744Z,98965.22
2023-05-10T23:21:49.293Z,98964.41
2023-05-10T23:26:41.119Z,98980.69
2023-05-10T23:31:32.789Z,98975.75
2023-05-10T23:36:24.327Z,98975.16
2023-05-10T23:41:15.934Z,98973.25
2023-05-10T23:46:07.499Z,98972.22
2023-05-10T23:50:59.054Z,98973.25
2023-05-10T23:55:50.598Z,98976.47
